< < Back
Terminal Aerodrome Forecast


Current Version              Previous Versions:   1  2  3  4  5  6  7  8  9  

Terminal Aerodrome Forecast

758
FTUS42 KTAE 231700
TAFVLD
TAF
KVLD 231737Z 2318/2418 VRB04KT P6SM SCT040
     FM240000 00000KT P6SM SKC
     FM240900 25004KT 3SM BR FEW004
     FM241400 24006KT P6SM SCT250=

Latest METAR

525
SAUS70 KWBC 232200
MTRVLD
METAR KVLD 232153Z 18005KT 10SM SCT060 35/20 A3000 RMK AO2 SLP164
T03500200


USA.gov is the U.S. government's official web portal to all federal, state and local government web resources and services.